TAX73JC LPPR-LIPE
Flight info
| Callsign | TAX73JC |
|---|---|
| Flight time | 1h 58m |
| Altitude | 34000 |
| Route | BELDU DCT ADORO L155 ZMR N976 DGO T429 GOSVI DCT PERDU DCT GIROM DCT ZR DCT MARRI/N0477F350 Y25 SALIN Y341 BULTO UY342 PADKO/N0475F340 DCT RUBIT DCT AZR DCT NOSTA DCT LUKIM DCT NIGSO |
| Aircraft | B77L/H-SDE1E2E3FGHIJ2J3J4J5M1RWXY/LB1D1 |
Departure
| Time | 2026-05-05 08:11 |
|---|---|
| Airport | Francisco de Sá Carneiro Airport (LPPR) |
Arrival
| Time | 2026-05-05 10:10 |
|---|---|
| Airport | Bologna Guglielmo Marconi Airport (LIPE) |
| Time | Latitude | Longitude | Altitude | Speed | Heading |
|---|---|---|---|---|---|
| 2026-05-05 07:45 | 41.23751 | -8.68484 | 240 ft | 0 kts | 259° |
| 2026-05-05 07:59 | 41.23754 | -8.68469 | 239 ft | 4 kts | 254° |
| 2026-05-05 07:59 | 41.23763 | -8.68436 | 239 ft | 4 kts | 238° |
| 2026-05-05 07:59 | 41.23780 | -8.68409 | 239 ft | 4 kts | 219° |
| 2026-05-05 08:00 | 41.23803 | -8.68391 | 239 ft | 4 kts | 192° |
| 2026-05-05 08:00 | 41.23819 | -8.68389 | 239 ft | 0 kts | 169° |
| 2026-05-05 08:03 | 41.23815 | -8.68388 | 239 ft | 3 kts | 169° |
| 2026-05-05 08:03 | 41.23781 | -8.68379 | 239 ft | 6 kts | 169° |
| 2026-05-05 08:03 | 41.23743 | -8.68366 | 239 ft | 6 kts | 155° |
| 2026-05-05 08:04 | 41.23718 | -8.68326 | 239 ft | 6 kts | 108° |
| 2026-05-05 08:04 | 41.23715 | -8.68267 | 239 ft | 7 kts | 90° |
| 2026-05-05 08:04 | 41.23716 | -8.68199 | 239 ft | 8 kts | 87° |
| 2026-05-05 08:04 | 41.23729 | -8.68117 | 239 ft | 11 kts | 58° |
| 2026-05-05 08:05 | 41.23814 | -8.68105 | 239 ft | 16 kts | 348° |
| 2026-05-05 08:05 | 41.23929 | -8.68136 | 239 ft | 18 kts | 348° |
| 2026-05-05 08:05 | 41.24058 | -8.68169 | 239 ft | 20 kts | 349° |
| 2026-05-05 08:05 | 41.24197 | -8.68205 | 239 ft | 21 kts | 349° |
| 2026-05-05 08:06 | 41.24339 | -8.68242 | 240 ft | 21 kts | 349° |
| 2026-05-05 08:06 | 41.24482 | -8.68278 | 240 ft | 21 kts | 350° |
| 2026-05-05 08:06 | 41.24623 | -8.68253 | 240 ft | 21 kts | 19° |
| 2026-05-05 08:06 | 41.24761 | -8.68191 | 241 ft | 21 kts | 17° |
| 2026-05-05 08:07 | 41.24903 | -8.68160 | 241 ft | 21 kts | 1° |
| 2026-05-05 08:07 | 41.25047 | -8.68185 | 238 ft | 21 kts | 349° |
| 2026-05-05 08:07 | 41.25189 | -8.68223 | 239 ft | 21 kts | 348° |
| 2026-05-05 08:07 | 41.25331 | -8.68262 | 238 ft | 21 kts | 350° |
| 2026-05-05 08:08 | 41.25473 | -8.68297 | 239 ft | 21 kts | 349° |
| 2026-05-05 08:08 | 41.25616 | -8.68333 | 239 ft | 21 kts | 349° |
| 2026-05-05 08:08 | 41.25758 | -8.68371 | 241 ft | 21 kts | 348° |
| 2026-05-05 08:08 | 41.25914 | -8.68412 | 240 ft | 25 kts | 349° |
| 2026-05-05 08:09 | 41.26095 | -8.68460 | 240 ft | 25 kts | 349° |
| 2026-05-05 08:09 | 41.26207 | -8.68540 | 239 ft | 18 kts | 317° |
| 2026-05-05 08:09 | 41.26295 | -8.68598 | 239 ft | 10 kts | 21° |
| 2026-05-05 08:09 | 41.26310 | -8.68523 | 239 ft | 7 kts | 128° |
| 2026-05-05 08:10 | 41.26276 | -8.68508 | 239 ft | 0 kts | 168° |
| 2026-05-05 08:10 | 41.26047 | -8.68446 | 240 ft | 70 kts | 168° |
| 2026-05-05 08:11 | 41.25337 | -8.68261 | 238 ft | 135 kts | 169° |
| 2026-05-05 08:11 | 41.24244 | -8.67977 | 310 ft | 176 kts | 169° |
| 2026-05-05 08:11 | 41.23026 | -8.67665 | 845 ft | 180 kts | 168° |
| 2026-05-05 08:11 | 41.21786 | -8.67341 | 1390 ft | 189 kts | 169° |
| 2026-05-05 08:12 | 41.20419 | -8.66977 | 1632 ft | 212 kts | 169° |
| 2026-05-05 08:12 | 41.18888 | -8.66559 | 1893 ft | 236 kts | 169° |
| 2026-05-05 08:12 | 41.17222 | -8.66097 | 2375 ft | 252 kts | 169° |
| 2026-05-05 08:12 | 41.15471 | -8.65608 | 2993 ft | 263 kts | 169° |
| 2026-05-05 08:13 | 41.13706 | -8.64934 | 3622 ft | 269 kts | 152° |
| 2026-05-05 08:13 | 41.12375 | -8.63185 | 4248 ft | 276 kts | 115° |
| 2026-05-05 08:13 | 41.12011 | -8.60726 | 4979 ft | 276 kts | 80° |
| 2026-05-05 08:13 | 41.12492 | -8.58286 | 5600 ft | 276 kts | 71° |
| 2026-05-05 08:14 | 41.12975 | -8.55781 | 6249 ft | 283 kts | 73° |
| 2026-05-05 08:14 | 41.13414 | -8.53222 | 7041 ft | 285 kts | 74° |
| 2026-05-05 08:14 | 41.13845 | -8.50652 | 7806 ft | 287 kts | 74° |
| 2026-05-05 08:14 | 41.14277 | -8.48059 | 8545 ft | 289 kts | 74° |
| 2026-05-05 08:15 | 41.14711 | -8.45443 | 9278 ft | 292 kts | 73° |
| 2026-05-05 08:15 | 41.15150 | -8.42797 | 10013 ft | 295 kts | 73° |
| 2026-05-05 08:15 | 41.15594 | -8.40114 | 10548 ft | 304 kts | 73° |
| 2026-05-05 08:15 | 41.16068 | -8.37267 | 10724 ft | 328 kts | 73° |
| 2026-05-05 08:16 | 41.16577 | -8.34207 | 10949 ft | 351 kts | 74° |
| 2026-05-05 08:16 | 41.17116 | -8.30934 | 11165 ft | 373 kts | 75° |
| 2026-05-05 08:16 | 41.17665 | -8.27568 | 11775 ft | 383 kts | 75° |
| 2026-05-05 08:16 | 41.18231 | -8.24073 | 12565 ft | 390 kts | 75° |
| 2026-05-05 08:17 | 41.18802 | -8.20532 | 13437 ft | 394 kts | 75° |
| 2026-05-05 08:17 | 41.19379 | -8.16959 | 14275 ft | 398 kts | 75° |
| 2026-05-05 08:17 | 41.19963 | -8.13343 | 15012 ft | 404 kts | 75° |
| 2026-05-05 08:17 | 41.20555 | -8.09672 | 15768 ft | 409 kts | 75° |
| 2026-05-05 08:18 | 41.21153 | -8.05961 | 16530 ft | 413 kts | 75° |
| 2026-05-05 08:18 | 41.21755 | -8.02210 | 17299 ft | 418 kts | 75° |
| 2026-05-05 08:18 | 41.22363 | -7.98410 | 18037 ft | 423 kts | 75° |
| 2026-05-05 08:18 | 41.22978 | -7.94570 | 18707 ft | 428 kts | 75° |
| 2026-05-05 08:19 | 41.23600 | -7.90679 | 19333 ft | 433 kts | 75° |
| 2026-05-05 08:19 | 41.24228 | -7.86737 | 19928 ft | 438 kts | 75° |
| 2026-05-05 08:19 | 41.24862 | -7.82752 | 20483 ft | 444 kts | 75° |
| 2026-05-05 08:19 | 41.25510 | -7.78667 | 21113 ft | 447 kts | 75° |
| 2026-05-05 08:20 | 41.26153 | -7.74605 | 21711 ft | 452 kts | 75° |
| 2026-05-05 08:20 | 41.26801 | -7.70496 | 22301 ft | 456 kts | 75° |
| 2026-05-05 08:20 | 41.27454 | -7.66342 | 22871 ft | 462 kts | 75° |
| 2026-05-05 08:20 | 41.28111 | -7.62148 | 23448 ft | 466 kts | 75° |
| 2026-05-05 08:21 | 41.28777 | -7.57906 | 23926 ft | 471 kts | 76° |
| 2026-05-05 08:21 | 41.29448 | -7.53614 | 24375 ft | 476 kts | 76° |
| 2026-05-05 08:21 | 41.30124 | -7.49282 | 24833 ft | 481 kts | 76° |
| 2026-05-05 08:21 | 41.30800 | -7.44911 | 25300 ft | 485 kts | 76° |
| 2026-05-05 08:22 | 41.31483 | -7.40501 | 25767 ft | 488 kts | 76° |
| 2026-05-05 08:22 | 41.32169 | -7.36059 | 26231 ft | 492 kts | 76° |
| 2026-05-05 08:22 | 41.32861 | -7.31573 | 26661 ft | 497 kts | 76° |
| 2026-05-05 08:22 | 41.33555 | -7.27051 | 27187 ft | 499 kts | 76° |
| 2026-05-05 08:23 | 41.34250 | -7.22521 | 27735 ft | 501 kts | 76° |
| 2026-05-05 08:23 | 41.34949 | -7.17951 | 28138 ft | 507 kts | 77° |
| 2026-05-05 08:23 | 41.35652 | -7.13329 | 28463 ft | 512 kts | 77° |
| 2026-05-05 08:23 | 41.36359 | -7.08669 | 28833 ft | 516 kts | 77° |
| 2026-05-05 08:24 | 41.37064 | -7.04035 | 29225 ft | 519 kts | 77° |
| 2026-05-05 08:24 | 41.37789 | -6.99253 | 29629 ft | 522 kts | 77° |
| 2026-05-05 08:24 | 41.38495 | -6.94571 | 30095 ft | 523 kts | 77° |
| 2026-05-05 08:24 | 41.39207 | -6.89826 | 30551 ft | 522 kts | 77° |
| 2026-05-05 08:25 | 41.39915 | -6.85088 | 30997 ft | 521 kts | 77° |
| 2026-05-05 08:25 | 41.40621 | -6.80352 | 31356 ft | 523 kts | 77° |
| 2026-05-05 08:25 | 41.41330 | -6.75592 | 31713 ft | 524 kts | 77° |
| 2026-05-05 08:25 | 41.42037 | -6.70829 | 32135 ft | 523 kts | 77° |
| 2026-05-05 08:26 | 41.42738 | -6.66084 | 32568 ft | 522 kts | 77° |
| 2026-05-05 08:26 | 41.43438 | -6.61340 | 33006 ft | 521 kts | 77° |
| 2026-05-05 08:26 | 41.44136 | -6.56602 | 33391 ft | 521 kts | 77° |
| 2026-05-05 08:26 | 41.44832 | -6.51860 | 33761 ft | 521 kts | 77° |
| 2026-05-05 08:27 | 41.45526 | -6.47112 | 34018 ft | 524 kts | 78° |
| 2026-05-05 08:27 | 41.46225 | -6.42327 | 34055 ft | 528 kts | 78° |
| 2026-05-05 08:27 | 41.47617 | -6.32737 | 34048 ft | 524 kts | 78° |
| 2026-05-05 08:28 | 41.48744 | -6.23268 | 34063 ft | 520 kts | 83° |
| 2026-05-05 08:28 | 41.49428 | -6.13661 | 34048 ft | 521 kts | 84° |
| 2026-05-05 08:29 | 41.50102 | -6.04040 | 34046 ft | 522 kts | 84° |
| 2026-05-05 08:30 | 41.51164 | -5.89545 | 34048 ft | 525 kts | 84° |
| 2026-05-05 08:30 | 41.51876 | -5.79771 | 34050 ft | 527 kts | 84° |
| 2026-05-05 08:31 | 41.52600 | -5.70093 | 34037 ft | 528 kts | 82° |
| 2026-05-05 08:31 | 41.54263 | -5.60558 | 34042 ft | 528 kts | 71° |
| 2026-05-05 08:32 | 41.56546 | -5.52944 | 34043 ft | 527 kts | 64° |
| 2026-05-05 08:32 | 41.59585 | -5.44027 | 34032 ft | 528 kts | 64° |
| 2026-05-05 08:33 | 41.62606 | -5.35092 | 34032 ft | 528 kts | 64° |
| 2026-05-05 08:33 | 41.65585 | -5.26121 | 34048 ft | 528 kts | 65° |
| 2026-05-05 08:34 | 41.68518 | -5.17205 | 34019 ft | 527 kts | 65° |
| 2026-05-05 08:34 | 41.71456 | -5.08244 | 34020 ft | 525 kts | 65° |
| 2026-05-05 08:35 | 41.74378 | -4.99314 | 34018 ft | 523 kts | 65° |
| 2026-05-05 08:35 | 41.77287 | -4.90399 | 34013 ft | 522 kts | 65° |
| 2026-05-05 08:36 | 41.80190 | -4.81470 | 34027 ft | 523 kts | 65° |
| 2026-05-05 08:36 | 41.83090 | -4.72523 | 34024 ft | 524 kts | 66° |
| 2026-05-05 08:37 | 41.85986 | -4.63557 | 34022 ft | 525 kts | 66° |
| 2026-05-05 08:37 | 41.88864 | -4.54618 | 34012 ft | 526 kts | 66° |
| 2026-05-05 08:38 | 41.91759 | -4.45596 | 34029 ft | 527 kts | 66° |
| 2026-05-05 08:38 | 41.94650 | -4.36557 | 34020 ft | 527 kts | 66° |
| 2026-05-05 08:39 | 41.97531 | -4.27516 | 34024 ft | 526 kts | 66° |
| 2026-05-05 08:39 | 42.00400 | -4.18482 | 34017 ft | 525 kts | 66° |
| 2026-05-05 08:40 | 42.03262 | -4.09459 | 34021 ft | 524 kts | 66° |
| 2026-05-05 08:40 | 42.06329 | -4.00578 | 34021 ft | 523 kts | 63° |
| 2026-05-05 08:41 | 42.09487 | -3.91825 | 34020 ft | 523 kts | 63° |
| 2026-05-05 08:41 | 42.12628 | -3.82999 | 34023 ft | 523 kts | 64° |
| 2026-05-05 08:42 | 42.15732 | -3.74138 | 34030 ft | 523 kts | 64° |
| 2026-05-05 08:42 | 42.18825 | -3.65251 | 34025 ft | 524 kts | 64° |
| 2026-05-05 08:43 | 42.21916 | -3.56344 | 34022 ft | 524 kts | 64° |
| 2026-05-05 08:43 | 42.25005 | -3.47426 | 34021 ft | 525 kts | 64° |
| 2026-05-05 08:44 | 42.28091 | -3.38490 | 34010 ft | 525 kts | 65° |
| 2026-05-05 08:44 | 42.31170 | -3.29543 | 34019 ft | 526 kts | 65° |
| 2026-05-05 08:45 | 42.34266 | -3.20513 | 34014 ft | 526 kts | 65° |
| 2026-05-05 08:45 | 42.37339 | -3.11528 | 34032 ft | 527 kts | 65° |
| 2026-05-05 08:46 | 42.40407 | -3.02526 | 34001 ft | 527 kts | 65° |
| 2026-05-05 08:46 | 42.43405 | -2.93474 | 33989 ft | 526 kts | 70° |
| 2026-05-05 08:47 | 42.45207 | -2.83918 | 34009 ft | 523 kts | 83° |
| 2026-05-05 08:47 | 42.45632 | -2.74123 | 34012 ft | 520 kts | 92° |
| 2026-05-05 08:48 | 42.45689 | -2.64322 | 33998 ft | 521 kts | 92° |
| 2026-05-05 08:48 | 42.45803 | -2.54508 | 34016 ft | 521 kts | 91° |
| 2026-05-05 08:49 | 42.45947 | -2.44682 | 34023 ft | 522 kts | 91° |
| 2026-05-05 08:49 | 42.46123 | -2.34914 | 34024 ft | 524 kts | 88° |
| 2026-05-05 08:50 | 42.47229 | -2.25152 | 34013 ft | 526 kts | 78° |
| 2026-05-05 08:50 | 42.48911 | -2.15485 | 34019 ft | 527 kts | 78° |
| 2026-05-05 08:51 | 42.50567 | -2.05794 | 34011 ft | 528 kts | 78° |
| 2026-05-05 08:51 | 42.52152 | -1.96208 | 34014 ft | 529 kts | 79° |
| 2026-05-05 08:52 | 42.53738 | -1.86477 | 33988 ft | 529 kts | 79° |
| 2026-05-05 08:52 | 42.55317 | -1.76739 | 34001 ft | 529 kts | 79° |
| 2026-05-05 08:53 | 42.56883 | -1.67047 | 33996 ft | 530 kts | 79° |
| 2026-05-05 08:53 | 42.58453 | -1.57288 | 33999 ft | 530 kts | 79° |
| 2026-05-05 08:54 | 42.60014 | -1.47517 | 33977 ft | 530 kts | 79° |
| 2026-05-05 08:54 | 42.61563 | -1.37727 | 33996 ft | 530 kts | 81° |
| 2026-05-05 08:55 | 42.62537 | -1.27833 | 34000 ft | 527 kts | 86° |
| 2026-05-05 08:55 | 42.63284 | -1.17931 | 33987 ft | 527 kts | 86° |
| 2026-05-05 08:56 | 42.64041 | -1.08025 | 33984 ft | 527 kts | 86° |
| 2026-05-05 08:56 | 42.64822 | -0.98123 | 33977 ft | 528 kts | 86° |
| 2026-05-05 08:57 | 42.65603 | -0.88214 | 33980 ft | 527 kts | 86° |
| 2026-05-05 08:57 | 42.66377 | -0.78303 | 33974 ft | 527 kts | 86° |
| 2026-05-05 08:58 | 42.67136 | -0.68391 | 33977 ft | 528 kts | 87° |
| 2026-05-05 08:58 | 42.67896 | -0.58380 | 33974 ft | 530 kts | 87° |
| 2026-05-05 08:59 | 42.68642 | -0.48406 | 33986 ft | 531 kts | 87° |
| 2026-05-05 08:59 | 42.69386 | -0.38392 | 33967 ft | 534 kts | 87° |
| 2026-05-05 09:00 | 42.70122 | -0.28361 | 33986 ft | 533 kts | 87° |
| 2026-05-05 09:00 | 42.70847 | -0.18329 | 33967 ft | 534 kts | 87° |
| 2026-05-05 09:01 | 42.71563 | -0.08297 | 33973 ft | 533 kts | 87° |
| 2026-05-05 09:01 | 42.72269 | 0.01718 | 33949 ft | 532 kts | 87° |
| 2026-05-05 09:02 | 42.72968 | 0.11732 | 33950 ft | 532 kts | 87° |
| 2026-05-05 09:02 | 42.73612 | 0.21749 | 33965 ft | 531 kts | 89° |
| 2026-05-05 09:03 | 42.74122 | 0.31706 | 33967 ft | 532 kts | 89° |
| 2026-05-05 09:03 | 42.74624 | 0.41757 | 33955 ft | 532 kts | 89° |
| 2026-05-05 09:04 | 42.75143 | 0.51881 | 33952 ft | 534 kts | 89° |
| 2026-05-05 09:04 | 42.75657 | 0.61958 | 33965 ft | 534 kts | 89° |
| 2026-05-05 09:05 | 42.76163 | 0.72064 | 33963 ft | 536 kts | 89° |
| 2026-05-05 09:05 | 42.76661 | 0.82190 | 33956 ft | 536 kts | 90° |
| 2026-05-05 09:06 | 42.77152 | 0.92311 | 33951 ft | 537 kts | 90° |
| 2026-05-05 09:06 | 42.78211 | 1.02221 | 33964 ft | 542 kts | 79° |
| 2026-05-05 09:07 | 42.80477 | 1.12033 | 33965 ft | 545 kts | 72° |
| 2026-05-05 09:07 | 42.82983 | 1.21626 | 33949 ft | 544 kts | 72° |
| 2026-05-05 09:08 | 42.85478 | 1.31374 | 33972 ft | 545 kts | 73° |
| 2026-05-05 09:08 | 42.87926 | 1.41151 | 33975 ft | 544 kts | 73° |
| 2026-05-05 09:09 | 42.90340 | 1.50879 | 33980 ft | 546 kts | 73° |
| 2026-05-05 09:09 | 42.92766 | 1.60695 | 33968 ft | 546 kts | 73° |
| 2026-05-05 09:10 | 42.95190 | 1.70525 | 33970 ft | 547 kts | 73° |
| 2026-05-05 09:10 | 42.97612 | 1.80384 | 33967 ft | 548 kts | 73° |
| 2026-05-05 09:11 | 43.00024 | 1.90253 | 33959 ft | 548 kts | 73° |
| 2026-05-05 09:11 | 43.02431 | 2.00130 | 33971 ft | 547 kts | 74° |
| 2026-05-05 09:12 | 43.04824 | 2.10003 | 33959 ft | 547 kts | 74° |
| 2026-05-05 09:12 | 43.07204 | 2.19861 | 33968 ft | 545 kts | 74° |
| 2026-05-05 09:13 | 43.09569 | 2.29701 | 33925 ft | 544 kts | 74° |
| 2026-05-05 09:13 | 43.11923 | 2.39536 | 33965 ft | 544 kts | 74° |
| 2026-05-05 09:14 | 43.14271 | 2.49391 | 33959 ft | 545 kts | 75° |
| 2026-05-05 09:14 | 43.16610 | 2.59255 | 33954 ft | 546 kts | 75° |
| 2026-05-05 09:15 | 43.18946 | 2.69151 | 33920 ft | 546 kts | 75° |
| 2026-05-05 09:15 | 43.21276 | 2.79059 | 33947 ft | 547 kts | 75° |
| 2026-05-05 09:16 | 43.23601 | 2.88990 | 33942 ft | 547 kts | 75° |
| 2026-05-05 09:16 | 43.25883 | 2.98782 | 33939 ft | 547 kts | 75° |
| 2026-05-05 09:17 | 43.28187 | 3.08712 | 33919 ft | 546 kts | 75° |
| 2026-05-05 09:17 | 43.30410 | 3.18333 | 33941 ft | 545 kts | 75° |
| 2026-05-05 09:18 | 43.32106 | 3.26114 | 33940 ft | 543 kts | 80° |
| 2026-05-05 09:18 | 43.33215 | 3.35507 | 33939 ft | 536 kts | 91° |
| 2026-05-05 09:19 | 43.33600 | 3.43841 | 33944 ft | 536 kts | 91° |
| 2026-05-05 09:19 | 43.33959 | 3.51813 | 33939 ft | 536 kts | 91° |
| 2026-05-05 09:20 | 43.34328 | 3.59487 | 33942 ft | 537 kts | 91° |
| 2026-05-05 09:20 | 43.34716 | 3.67159 | 33940 ft | 537 kts | 91° |
| 2026-05-05 09:21 | 43.35115 | 3.75014 | 33940 ft | 538 kts | 91° |
| 2026-05-05 09:21 | 43.35506 | 3.82809 | 33909 ft | 537 kts | 91° |
| 2026-05-05 09:22 | 43.35919 | 3.91229 | 33927 ft | 537 kts | 91° |
| 2026-05-05 09:22 | 43.36293 | 3.99014 | 33958 ft | 536 kts | 91° |
| 2026-05-05 09:23 | 43.36658 | 4.06712 | 33943 ft | 536 kts | 91° |
| 2026-05-05 09:23 | 43.37011 | 4.14276 | 33940 ft | 536 kts | 91° |
| 2026-05-05 09:24 | 43.37449 | 4.23792 | 33932 ft | 535 kts | 91° |
| 2026-05-05 09:24 | 43.37910 | 4.33989 | 33943 ft | 534 kts | 91° |
| 2026-05-05 09:25 | 43.37973 | 4.44104 | 33929 ft | 522 kts | 104° |
| 2026-05-05 09:25 | 43.36085 | 4.53572 | 34032 ft | 510 kts | 121° |
| 2026-05-05 09:25 | 43.34472 | 4.57853 | 34251 ft | 502 kts | 128° |
| 2026-05-05 09:26 | 43.32717 | 4.61977 | 34631 ft | 500 kts | 127° |
| 2026-05-05 09:26 | 43.31018 | 4.66146 | 34960 ft | 501 kts | 125° |
| 2026-05-05 09:26 | 43.29810 | 4.69599 | 34886 ft | 512 kts | 118° |
| 2026-05-05 09:27 | 43.28252 | 4.76612 | 34917 ft | 519 kts | 108° |
| 2026-05-05 09:27 | 43.27580 | 4.83965 | 34941 ft | 523 kts | 98° |
| 2026-05-05 09:28 | 43.27300 | 4.91557 | 34940 ft | 522 kts | 100° |
| 2026-05-05 09:28 | 43.26653 | 4.99348 | 34929 ft | 518 kts | 103° |
| 2026-05-05 09:29 | 43.25611 | 5.09124 | 34941 ft | 518 kts | 104° |
| 2026-05-05 09:29 | 43.24621 | 5.18842 | 34943 ft | 518 kts | 103° |
| 2026-05-05 09:30 | 43.23663 | 5.28642 | 34942 ft | 519 kts | 103° |
| 2026-05-05 09:30 | 43.23067 | 5.38517 | 34907 ft | 520 kts | 95° |
| 2026-05-05 09:30 | 43.23051 | 5.43466 | 34763 ft | 518 kts | 94° |
| 2026-05-05 09:31 | 43.23056 | 5.48414 | 34494 ft | 519 kts | 94° |
| 2026-05-05 09:31 | 43.23058 | 5.53365 | 34184 ft | 521 kts | 95° |
| 2026-05-05 09:31 | 43.23047 | 5.58330 | 34007 ft | 519 kts | 95° |
| 2026-05-05 09:32 | 43.22992 | 5.68216 | 33947 ft | 520 kts | 95° |
| 2026-05-05 09:32 | 43.22911 | 5.78135 | 33943 ft | 519 kts | 95° |
| 2026-05-05 09:33 | 43.22817 | 5.88032 | 33950 ft | 519 kts | 95° |
| 2026-05-05 09:33 | 43.22719 | 5.97998 | 33948 ft | 519 kts | 95° |
| 2026-05-05 09:34 | 43.22614 | 6.07872 | 33953 ft | 518 kts | 95° |
| 2026-05-05 09:34 | 43.22504 | 6.17682 | 33963 ft | 518 kts | 95° |
| 2026-05-05 09:35 | 43.22382 | 6.27616 | 33957 ft | 518 kts | 96° |
| 2026-05-05 09:35 | 43.22581 | 6.37496 | 33951 ft | 524 kts | 83° |
| 2026-05-05 09:35 | 43.23559 | 6.42328 | 33967 ft | 529 kts | 71° |
| 2026-05-05 09:36 | 43.25138 | 6.46896 | 33970 ft | 532 kts | 59° |
| 2026-05-05 09:36 | 43.27276 | 6.51037 | 33975 ft | 532 kts | 53° |
| 2026-05-05 09:36 | 43.31826 | 6.59068 | 33958 ft | 534 kts | 52° |
| 2026-05-05 09:37 | 43.36314 | 6.67127 | 33963 ft | 535 kts | 53° |
| 2026-05-05 09:37 | 43.40770 | 6.75330 | 33965 ft | 536 kts | 54° |
| 2026-05-05 09:38 | 43.45208 | 6.83573 | 33976 ft | 536 kts | 54° |
| 2026-05-05 09:38 | 43.49643 | 6.91820 | 33966 ft | 536 kts | 54° |
| 2026-05-05 09:39 | 43.54077 | 7.00075 | 33956 ft | 535 kts | 54° |
| 2026-05-05 09:39 | 43.58492 | 7.08321 | 33963 ft | 534 kts | 54° |
| 2026-05-05 09:40 | 43.62866 | 7.16509 | 33975 ft | 533 kts | 54° |
| 2026-05-05 09:40 | 43.66835 | 7.25125 | 33961 ft | 531 kts | 64° |
| 2026-05-05 09:41 | 43.69738 | 7.34465 | 33968 ft | 528 kts | 70° |
| 2026-05-05 09:41 | 43.72485 | 7.43890 | 33968 ft | 529 kts | 70° |
| 2026-05-05 09:42 | 43.75284 | 7.53303 | 33968 ft | 530 kts | 70° |
| 2026-05-05 09:42 | 43.78103 | 7.62725 | 33957 ft | 529 kts | 69° |
| 2026-05-05 09:43 | 43.80908 | 7.72145 | 33973 ft | 530 kts | 70° |
| 2026-05-05 09:43 | 43.83342 | 7.81752 | 33977 ft | 527 kts | 76° |
| 2026-05-05 09:44 | 43.85392 | 7.91575 | 33974 ft | 528 kts | 77° |
| 2026-05-05 09:44 | 43.87418 | 8.01358 | 33950 ft | 528 kts | 76° |
| 2026-05-05 09:45 | 43.89469 | 8.11121 | 33970 ft | 527 kts | 76° |
| 2026-05-05 09:45 | 43.91523 | 8.20871 | 33964 ft | 527 kts | 76° |
| 2026-05-05 09:46 | 43.93569 | 8.30628 | 33972 ft | 527 kts | 76° |
| 2026-05-05 09:46 | 43.95604 | 8.40394 | 33957 ft | 527 kts | 76° |
| 2026-05-05 09:47 | 43.97633 | 8.50180 | 33964 ft | 528 kts | 76° |
| 2026-05-05 09:47 | 43.99658 | 8.59991 | 33683 ft | 533 kts | 76° |
| 2026-05-05 09:48 | 44.00685 | 8.64997 | 32802 ft | 541 kts | 76° |
| 2026-05-05 09:48 | 44.01709 | 8.69989 | 32344 ft | 533 kts | 76° |
| 2026-05-05 09:48 | 44.02720 | 8.74922 | 31773 ft | 528 kts | 75° |
| 2026-05-05 09:48 | 44.03715 | 8.79794 | 31268 ft | 522 kts | 75° |
| 2026-05-05 09:49 | 44.04701 | 8.84632 | 30761 ft | 518 kts | 75° |
| 2026-05-05 09:49 | 44.05673 | 8.89419 | 30362 ft | 511 kts | 75° |
| 2026-05-05 09:49 | 44.06632 | 8.94149 | 29860 ft | 506 kts | 75° |
| 2026-05-05 09:49 | 44.07581 | 8.98843 | 29304 ft | 502 kts | 76° |
| 2026-05-05 09:50 | 44.08518 | 9.03491 | 28772 ft | 497 kts | 76° |
| 2026-05-05 09:50 | 44.09446 | 9.08101 | 28266 ft | 493 kts | 76° |
| 2026-05-05 09:50 | 44.10365 | 9.12680 | 27732 ft | 489 kts | 76° |
| 2026-05-05 09:50 | 44.11274 | 9.17219 | 27226 ft | 485 kts | 76° |
| 2026-05-05 09:51 | 44.12172 | 9.21716 | 26730 ft | 480 kts | 76° |
| 2026-05-05 09:51 | 44.13062 | 9.26177 | 26247 ft | 476 kts | 76° |
| 2026-05-05 09:51 | 44.13943 | 9.30599 | 25773 ft | 472 kts | 76° |
| 2026-05-05 09:51 | 44.14797 | 9.34996 | 25282 ft | 469 kts | 77° |
| 2026-05-05 09:52 | 44.15618 | 9.39372 | 24827 ft | 465 kts | 77° |
| 2026-05-05 09:52 | 44.16409 | 9.43655 | 24349 ft | 462 kts | 77° |
| 2026-05-05 09:52 | 44.17202 | 9.47972 | 23866 ft | 458 kts | 77° |
| 2026-05-05 09:52 | 44.17988 | 9.52248 | 23372 ft | 455 kts | 77° |
| 2026-05-05 09:53 | 44.18771 | 9.56501 | 22863 ft | 451 kts | 77° |
| 2026-05-05 09:53 | 44.19546 | 9.60716 | 22395 ft | 447 kts | 78° |
| 2026-05-05 09:53 | 44.20316 | 9.64888 | 21928 ft | 443 kts | 78° |
| 2026-05-05 09:53 | 44.21078 | 9.69036 | 21481 ft | 439 kts | 78° |
| 2026-05-05 09:54 | 44.21831 | 9.73148 | 21022 ft | 436 kts | 78° |
| 2026-05-05 09:54 | 44.22577 | 9.77221 | 20596 ft | 432 kts | 78° |
| 2026-05-05 09:54 | 44.23315 | 9.81261 | 20129 ft | 429 kts | 78° |
| 2026-05-05 09:54 | 44.24049 | 9.85282 | 19699 ft | 427 kts | 78° |
| 2026-05-05 09:55 | 44.24777 | 9.89282 | 19244 ft | 423 kts | 78° |
| 2026-05-05 09:55 | 44.25495 | 9.93243 | 18843 ft | 420 kts | 78° |
| 2026-05-05 09:55 | 44.26209 | 9.97191 | 18404 ft | 419 kts | 78° |
| 2026-05-05 09:55 | 44.26918 | 10.01127 | 17928 ft | 417 kts | 78° |
| 2026-05-05 09:56 | 44.27623 | 10.05044 | 17455 ft | 415 kts | 78° |
| 2026-05-05 09:56 | 44.28324 | 10.08944 | 16982 ft | 413 kts | 78° |
| 2026-05-05 09:56 | 44.29019 | 10.12813 | 16563 ft | 410 kts | 78° |
| 2026-05-05 09:56 | 44.29710 | 10.16666 | 16151 ft | 408 kts | 78° |
| 2026-05-05 09:57 | 44.30394 | 10.20496 | 15712 ft | 406 kts | 78° |
| 2026-05-05 09:57 | 44.31075 | 10.24314 | 15267 ft | 404 kts | 78° |
| 2026-05-05 09:57 | 44.31751 | 10.28111 | 14861 ft | 403 kts | 78° |
| 2026-05-05 09:57 | 44.32424 | 10.31899 | 14405 ft | 401 kts | 78° |
| 2026-05-05 09:58 | 44.33092 | 10.35661 | 14004 ft | 398 kts | 78° |
| 2026-05-05 09:58 | 44.33756 | 10.39413 | 13534 ft | 398 kts | 78° |
| 2026-05-05 09:58 | 44.34417 | 10.43165 | 13066 ft | 396 kts | 78° |
| 2026-05-05 09:58 | 44.35073 | 10.46889 | 12645 ft | 393 kts | 78° |
| 2026-05-05 09:59 | 44.35723 | 10.50591 | 12219 ft | 391 kts | 78° |
| 2026-05-05 09:59 | 44.36368 | 10.54270 | 11802 ft | 389 kts | 78° |
| 2026-05-05 09:59 | 44.37010 | 10.57938 | 11362 ft | 388 kts | 78° |
| 2026-05-05 09:59 | 44.37650 | 10.61600 | 10934 ft | 387 kts | 78° |
| 2026-05-05 10:00 | 44.38284 | 10.65226 | 10695 ft | 381 kts | 78° |
| 2026-05-05 10:00 | 44.38984 | 10.68720 | 10535 ft | 364 kts | 69° |
| 2026-05-05 10:00 | 44.40172 | 10.71695 | 10349 ft | 338 kts | 51° |
| 2026-05-05 10:00 | 44.41711 | 10.74013 | 10088 ft | 316 kts | 41° |
| 2026-05-05 10:01 | 44.43374 | 10.75918 | 9629 ft | 303 kts | 34° |
| 2026-05-05 10:01 | 44.45060 | 10.77646 | 8965 ft | 298 kts | 34° |
| 2026-05-05 10:01 | 44.46732 | 10.79336 | 8251 ft | 295 kts | 34° |
| 2026-05-05 10:01 | 44.47833 | 10.80450 | 7773 ft | 294 kts | 34° |
| 2026-05-05 10:02 | 44.49447 | 10.82089 | 7472 ft | 281 kts | 34° |
| 2026-05-05 10:02 | 44.51033 | 10.83711 | 7155 ft | 285 kts | 34° |
| 2026-05-05 10:02 | 44.52651 | 10.85371 | 6843 ft | 290 kts | 34° |
| 2026-05-05 10:02 | 44.54286 | 10.87054 | 6527 ft | 292 kts | 34° |
| 2026-05-05 10:03 | 44.55898 | 10.88716 | 6397 ft | 283 kts | 34° |
| 2026-05-05 10:03 | 44.57518 | 10.90203 | 6135 ft | 273 kts | 25° |
| 2026-05-05 10:03 | 44.59191 | 10.91356 | 5875 ft | 261 kts | 23° |
| 2026-05-05 10:03 | 44.60790 | 10.92421 | 5586 ft | 247 kts | 24° |
| 2026-05-05 10:04 | 44.62291 | 10.93441 | 5358 ft | 234 kts | 24° |
| 2026-05-05 10:04 | 44.63673 | 10.94539 | 5153 ft | 223 kts | 43° |
| 2026-05-05 10:04 | 44.64408 | 10.96337 | 4845 ft | 207 kts | 84° |
| 2026-05-05 10:04 | 44.64358 | 10.98265 | 4579 ft | 192 kts | 108° |
| 2026-05-05 10:05 | 44.63894 | 10.99997 | 4399 ft | 189 kts | 118° |
| 2026-05-05 10:05 | 44.63317 | 11.01658 | 4192 ft | 195 kts | 119° |
| 2026-05-05 10:05 | 44.62709 | 11.03356 | 3932 ft | 195 kts | 119° |
| 2026-05-05 10:05 | 44.62103 | 11.05043 | 3674 ft | 192 kts | 119° |
| 2026-05-05 10:06 | 44.61503 | 11.06705 | 3418 ft | 189 kts | 118° |
| 2026-05-05 10:06 | 44.60923 | 11.08322 | 3160 ft | 182 kts | 118° |
| 2026-05-05 10:06 | 44.60365 | 11.09875 | 2912 ft | 173 kts | 118° |
| 2026-05-05 10:06 | 44.59827 | 11.11384 | 2734 ft | 175 kts | 118° |
| 2026-05-05 10:07 | 44.59270 | 11.12937 | 2461 ft | 179 kts | 117° |
| 2026-05-05 10:07 | 44.58712 | 11.14487 | 2221 ft | 177 kts | 117° |
| 2026-05-05 10:07 | 44.58163 | 11.16017 | 1975 ft | 175 kts | 116° |
| 2026-05-05 10:07 | 44.57616 | 11.17538 | 1747 ft | 175 kts | 116° |
| 2026-05-05 10:08 | 44.57065 | 11.19072 | 1514 ft | 177 kts | 116° |
| 2026-05-05 10:08 | 44.56522 | 11.20581 | 1259 ft | 168 kts | 116° |
| 2026-05-05 10:08 | 44.56021 | 11.21975 | 1044 ft | 153 kts | 115° |
| 2026-05-05 10:08 | 44.55551 | 11.23285 | 836 ft | 150 kts | 116° |
| 2026-05-05 10:09 | 44.55082 | 11.24597 | 650 ft | 151 kts | 116° |
| 2026-05-05 10:09 | 44.54609 | 11.25896 | 431 ft | 147 kts | 115° |
| 2026-05-05 10:09 | 44.54162 | 11.27147 | 254 ft | 143 kts | 115° |
| 2026-05-05 10:09 | 44.53715 | 11.28387 | 137 ft | 131 kts | 115° |
| 2026-05-05 10:10 | 44.53362 | 11.29375 | 132 ft | 92 kts | 116° |
| 2026-05-05 10:10 | 44.53145 | 11.29976 | 128 ft | 48 kts | 116° |
| 2026-05-05 10:10 | 44.53050 | 11.30227 | 127 ft | 24 kts | 135° |
| 2026-05-05 10:10 | 44.52984 | 11.30188 | 129 ft | 9 kts | 254° |
| 2026-05-05 10:11 | 44.52979 | 11.30101 | 127 ft | 9 kts | 266° |
| 2026-05-05 10:11 | 44.52975 | 11.30012 | 127 ft | 9 kts | 266° |
| 2026-05-05 10:11 | 44.52973 | 11.29923 | 135 ft | 9 kts | 273° |
| 2026-05-05 10:11 | 44.52995 | 11.29843 | 133 ft | 9 kts | 297° |
| 2026-05-05 10:12 | 44.53025 | 11.29763 | 129 ft | 9 kts | 297° |
| 2026-05-05 10:12 | 44.53052 | 11.29684 | 131 ft | 9 kts | 297° |
| 2026-05-05 10:12 | 44.53081 | 11.29606 | 131 ft | 9 kts | 296° |
| 2026-05-05 10:12 | 44.53113 | 11.29518 | 126 ft | 12 kts | 296° |
| 2026-05-05 10:13 | 44.53156 | 11.29396 | 130 ft | 16 kts | 297° |
| 2026-05-05 10:13 | 44.53210 | 11.29246 | 132 ft | 18 kts | 297° |
| 2026-05-05 10:13 | 44.53271 | 11.29079 | 130 ft | 20 kts | 297° |
| 2026-05-05 10:13 | 44.53335 | 11.28902 | 127 ft | 20 kts | 296° |
| 2026-05-05 10:14 | 44.53398 | 11.28724 | 129 ft | 20 kts | 297° |
| 2026-05-05 10:14 | 44.53462 | 11.28547 | 129 ft | 20 kts | 296° |
| 2026-05-05 10:14 | 44.53521 | 11.28384 | 127 ft | 12 kts | 297° |
| 2026-05-05 10:14 | 44.53515 | 11.28308 | 125 ft | 6 kts | 197° |
| 2026-05-05 10:15 | 44.53481 | 11.28336 | 126 ft | 6 kts | 154° |
| 2026-05-05 10:15 | 44.53441 | 11.28331 | 132 ft | 6 kts | 200° |
| 2026-05-05 10:15 | 44.53404 | 11.28305 | 130 ft | 6 kts | 207° |
| 2026-05-05 10:15 | 44.53390 | 11.28294 | 129 ft | 0 kts | 207° |